This is the latest recevied weather packets stored in our database for station/object SV9TNF-1. If no packets are shown the sender has not sent any weather packets the latest 10 day(s).
| Time | Temp. | Humidity | Pressure | Rain* | Wind** | Luminosity | Snow |
|---|---|---|---|---|---|---|---|
| 1778080233 | 22.78° C | 58% | 1005.1 hPa | 0 mm | 0.89 m/s, 136° | - | - |
| 1778079932 | 22.22° C | 56% | 1005.1 hPa | 0 mm | 2.68 m/s, 118° | - | - |
| 1778079632 | 22.22° C | 60% | 1005.1 hPa | 0 mm | 5.36 m/s, 107° | - | - |
| 1778079333 | 23.33° C | 58% | 1005.1 hPa | 0 mm | 2.68 m/s, 126° | - | - |
| 1778079032 | 23.33° C | 59% | 1005.1 hPa | 0 mm | 2.68 m/s, 107° | - | - |
| 1778078732 | 22.78° C | 59% | 1005.1 hPa | 0 mm | 4.47 m/s, 128° | - | - |
| 1778078432 | 23.89° C | 52% | 1005.1 hPa | 0 mm | 2.68 m/s, 137° | - | - |
| 1778078132 | 23.33° C | 55% | 1005.1 hPa | 0 mm | 4.02 m/s, 101° | - | - |
| 1778077832 | 23.33° C | 51% | 1005.1 hPa | 0 mm | 4.02 m/s, 112° | - | - |
| 1778077532 | 23.89° C | 47% | 1005.1 hPa | 0 mm | 4.02 m/s, 113° | - | - |
| 1778077232 | 24.44° C | 46% | 1005.1 hPa | 0 mm | 6.26 m/s, 142° | - | - |
| 1778076932 | 25° C | 42% | 1005.1 hPa | 0 mm | 2.68 m/s, 124° | - | - |
| 1778076631 | 25° C | 41% | 1005.4 hPa | 0 mm | 6.26 m/s, 110° | - | - |
| 1778076331 | 24.44° C | 46% | 1005.4 hPa | 0 mm | 1.79 m/s, 126° | - | - |
| 1778076031 | 24.44° C | 40% | 1005.4 hPa | 0 mm | 3.58 m/s, 118° | - | - |
| 1778075731 | 24.44° C | 41% | 1005.4 hPa | 0 mm | 4.47 m/s, 118° | - | - |
| 1778075431 | 24.44° C | 40% | 1005.4 hPa | 0 mm | 3.13 m/s, 135° | - | - |
| 1778075131 | 24.44° C | 42% | 1005.1 hPa | 0 mm | 4.92 m/s, 117° | - | - |
| 1778074831 | 24.44° C | 42% | 1005.1 hPa | 0 mm | 4.47 m/s, 107° | - | - |
| 1778074531 | 24.44° C | 42% | 1005.1 hPa | 0 mm | 4.02 m/s, 99° | - | - |
| 1778074231 | 24.44° C | 39% | 1005.1 hPa | 0 mm | 6.26 m/s, 101° | - | - |
| 1778073931 | 25° C | 37% | 1005.1 hPa | 0 mm | 3.13 m/s, 115° | - | - |
| 1778073631 | 25.56° C | 39% | 1005.1 hPa | 0 mm | 3.13 m/s, 124° | - | - |
| 1778073331 | 24.44° C | 41% | 1005.1 hPa | 0 mm | 5.81 m/s, 110° | - | - |
| 1778073030 | 24.44° C | 41% | 1005.1 hPa | 0 mm | 6.26 m/s, 109° | - | - |
* Rain latest hour (hover to see other rain measurements)
** Current wind speed in m/s (hover to see current wind gust speed)